66R

Robert R Wells Jr Airport

Columbus, Texas, USA
METAR K66R 211755Z AUTO 13004KT 10SM BKN018 28/24 A2995 RMK AO2 T02820237 10286 20236
Observed Flight Rules
Jun-21 @ 17:55 UTC (15 minutes ago) Marginal Visual Flight Rules
Wind Visibility Clouds
130° at 4 knots 10 miles
  • Broken at 1,800' AGL
Temperatures Readings
Current 28°C / 82°F
Dewpoint 24°C / 75°F
Humidity 79%
Altimeter 29.95" Hg
Pressure 1014 hPa
Elevation 74
METAR K66R 211755Z AUTO 13004KT 10SM BKN018 28/24 A2995 RMK AO2 T02820237 10286 20236
Observed Flight Rules
Jun-21 @ 17:55 UTC
(15 minutes ago)
MVFR
Wind Visibility
130° at 4 knots 10 miles
Clouds
  • Broken at 1,800' AGL
Temperature Dewpoint
28°C / 82°F 24°C / 75°F
Humidity Altimeter Pressure
79% 29.95" Hg 1014 hPa